Time;durP1;ratioP1;P1;durP2;ratioP2;P2;SDS_P1;SDS_P2;PMS_P1;PMS_P2;Temp;Humidity;BMP_temperature;BMP_pressure;BME280_temperature;BME280_humidity;BME280_pressure;Samples;Min_cycle;Max_cycle;Signal;HPM_P1;HPM_P2
2023/04/13 00:01:44;;;;;;;15.60;8.60;;;;;;;22.32;42.64;98837.39;108213;1254;73001;-64
2023/04/13 00:04:13;;;;;;;15.50;9.30;;;;;;;22.31;42.55;98842.41;108129;1254;63305;-66
2023/04/13 00:06:41;;;;;;;14.60;8.90;;;;;;;22.31;42.41;98848.55;108163;1254;61273;-66
2023/04/13 00:09:10;;;;;;;15.30;8.60;;;;;;;21.74;43.27;98851.15;108133;1256;72521;-67
2023/04/13 00:11:38;;;;;;;21.00;8.70;;;;;;;21.84;43.04;98847.75;108170;1253;70400;-67
2023/04/13 00:14:07;;;;;;;22.60;9.80;;;;;;;22.05;42.51;98850.60;108184;1254;73918;-65
2023/04/13 00:16:36;;;;;;;11.70;8.10;;;;;;;22.03;42.63;98845.20;108194;1254;63179;-66
2023/04/13 00:19:05;;;;;;;14.90;8.90;;;;;;;22.08;42.35;98849.34;108229;1252;61514;-66
2023/04/13 00:21:33;;;;;;;17.80;9.30;;;;;;;21.93;42.76;98856.11;108264;1254;73225;-66
2023/04/13 00:24:07;;;;;;;15.10;8.70;;;;;;;22.12;42.29;98849.80;108179;1256;69460;-67
2023/04/13 00:26:37;;;;;;;18.10;8.30;;;;;;;22.08;42.46;98854.59;108303;1257;73023;-66
2023/04/13 00:29:06;;;;;;;17.00;8.20;;;;;;;22.05;42.42;98858.91;108149;1254;62889;-66
2023/04/13 00:31:34;;;;;;;14.50;9.10;;;;;;;22.08;42.40;98849.17;108167;1257;61527;-67
2023/04/13 00:34:03;;;;;;;12.10;8.20;;;;;;;22.09;42.44;98844.75;108175;1256;72654;-66
2023/04/13 00:36:32;;;;;;;16.10;8.40;;;;;;;22.19;42.26;98846.48;108190;1254;71553;-67
2023/04/13 00:38:59;;;;;;;19.50;9.30;;;;;;;22.22;42.28;98842.71;108120;1254;72915;-66
2023/04/13 00:41:31;;;;;;;12.40;8.10;;;;;;;22.26;42.35;98844.11;108213;1253;62262;-66
2023/04/13 00:43:59;;;;;;;15.70;8.60;;;;;;;22.30;42.17;98842.01;108083;1253;59940;-66
2023/04/13 00:46:28;;;;;;;13.70;8.70;;;;;;;22.32;42.32;98843.11;108294;1253;73286;-67
2023/04/13 00:49:01;;;;;;;17.70;9.10;;;;;;;22.35;42.23;98840.04;108276;1254;69593;-66
2023/04/13 00:51:31;;;;;;;17.10;8.80;;;;;;;22.27;42.16;98832.31;108027;1254;72211;-65
2023/04/13 00:53:59;;;;;;;14.40;8.10;;;;;;;22.27;42.18;98828.08;108011;1254;60670;-66
2023/04/13 00:56:30;;;;;;;12.80;7.70;;;;;;;22.29;42.13;98827.34;108002;1253;61272;-66
2023/04/13 00:58:58;;;;;;;13.70;8.10;;;;;;;22.21;42.17;98842.42;108158;1254;73556;-67
2023/04/13 01:01:29;;;;;;;15.30;8.20;;;;;;;22.04;42.45;98844.27;108116;1254;69534;-67
2023/04/13 01:03:58;;;;;;;16.40;8.60;;;;;;;22.02;42.46;98837.66;108173;1254;73569;-65
2023/04/13 01:06:30;;;;;;;16.30;8.70;;;;;;;22.06;42.20;98833.98;108017;1254;63130;-66
2023/04/13 01:09:07;;;;;;;16.10;8.10;;;;;;;21.94;42.33;98837.55;108128;1252;59878;-66
2023/04/13 01:11:38;;;;;;;15.90;8.80;;;;;;;21.66;42.91;98834.46;108127;1254;74199;-66
2023/04/13 01:14:11;;;;;;;17.40;8.10;;;;;;;21.58;43.10;98829.53;108206;1254;69669;-65
2023/04/13 01:16:49;;;;;;;18.90;8.90;;;;;;;21.52;43.07;98833.55;108127;1260;72937;-65
2023/04/13 01:19:29;;;;;;;14.40;9.00;;;;;;;21.34;43.47;98835.93;108200;1253;61758;-66
2023/04/13 01:21:58;;;;;;;17.30;9.30;;;;;;;21.23;43.69;98828.31;108141;1255;60661;-65
2023/04/13 01:24:29;;;;;;;16.20;9.80;;;;;;;21.49;43.18;98829.04;108257;1254;75091;-66
2023/04/13 01:27:19;;;;;;;20.70;9.90;;;;;;;21.60;42.85;98828.24;108246;1254;70629;-65
2023/04/13 01:29:48;;;;;;;11.40;7.30;;;;;;;21.62;42.95;98825.38;108062;1254;74007;-65
2023/04/13 01:32:16;;;;;;;15.40;9.70;;;;;;;21.73;42.70;98821.23;108032;1253;62258;-65
2023/04/13 01:34:45;;;;;;;18.30;9.90;;;;;;;21.76;42.57;98817.98;108195;1254;61140;-65
2023/04/13 01:37:13;;;;;;;20.20;10.30;;;;;;;21.75;42.70;98815.96;107990;1253;75079;-65
2023/04/13 01:39:42;;;;;;;18.80;9.30;;;;;;;21.85;42.55;98823.20;107996;1253;70747;-66
2023/04/13 01:42:23;;;;;;;21.90;9.70;;;;;;;22.03;42.17;98823.11;108141;1254;72873;-65
2023/04/13 01:44:53;;;;;;;17.30;8.00;;;;;;;22.16;42.00;98826.38;108119;1256;63246;-65
2023/04/13 01:47:21;;;;;;;17.90;9.70;;;;;;;22.26;41.85;98831.70;107992;1254;60924;-66
2023/04/13 01:50:08;;;;;;;18.50;9.30;;;;;;;22.15;41.96;98835.03;108041;1252;73826;-64
2023/04/13 01:52:48;;;;;;;10.40;7.20;;;;;;;21.85;42.29;98829.85;107974;1254;69353;-66
2023/04/13 01:55:17;;;;;;;17.10;8.90;;;;;;;21.79;42.47;98821.14;108084;1254;71548;-66
2023/04/13 01:57:53;;;;;;;18.40;9.50;;;;;;;21.89;42.35;98815.95;108299;1254;62984;-67
2023/04/13 02:00:30;;;;;;;18.50;8.40;;;;;;;21.82;42.62;98809.59;108191;1254;60729;-65
2023/04/13 02:02:59;;;;;;;21.70;9.80;;;;;;;21.58;42.93;98817.02;107942;1253;73497;-66
2023/04/13 02:05:28;;;;;;;16.80;9.40;;;;;;;21.52;43.08;98831.98;107924;1254;70899;-65
2023/04/13 02:07:56;;;;;;;19.30;11.00;;;;;;;21.38;43.37;98848.91;108157;1254;72886;-67
2023/04/13 02:10:25;;;;;;;20.90;10.30;;;;;;;21.35;43.54;98854.55;108010;1253;63023;-66
2023/04/13 02:12:54;;;;;;;16.60;9.60;;;;;;;21.42;43.48;98852.81;108162;1254;61373;-67
2023/04/13 02:15:23;;;;;;;15.40;9.20;;;;;;;21.52;43.38;98847.06;108197;1254;73987;-66
2023/04/13 02:17:52;;;;;;;10.70;7.60;;;;;;;21.48;43.43;98845.56;108160;1254;70591;-65
2023/04/13 02:20:20;;;;;;;19.30;9.60;;;;;;;21.44;43.37;98841.91;107989;1254;71799;-67
2023/04/13 02:22:53;;;;;;;14.40;8.30;;;;;;;21.64;43.06;98843.01;108126;1253;62182;-66
2023/04/13 02:25:26;;;;;;;15.40;8.20;;;;;;;21.79;42.74;98839.03;108145;1253;60562;-66
2023/04/13 02:27:56;;;;;;;13.80;9.60;;;;;;;21.90;42.54;98836.72;108144;1254;73658;-66
2023/04/13 02:30:24;;;;;;;17.30;9.80;;;;;;;22.00;42.22;98835.56;108285;1254;71254;-66
2023/04/13 02:32:59;;;;;;;20.50;9.90;;;;;;;21.95;42.22;98840.14;108127;1254;73609;-67
2023/04/13 02:35:27;;;;;;;24.00;12.30;;;;;;;22.36;41.74;98841.05;108220;1254;60359;-67
2023/04/13 02:37:56;;;;;;;28.70;14.30;;;;;;;22.47;41.55;98836.19;108140;1254;59409;-65
2023/04/13 02:40:26;;;;;;;30.80;15.50;;;;;;;22.46;41.45;98834.80;108239;1254;73663;-67
2023/04/13 02:42:58;;;;;;;23.00;15.00;;;;;;;22.38;41.43;98837.06;108183;1253;71513;-65
2023/04/13 02:45:28;;;;;;;26.20;15.40;;;;;;;22.26;41.63;98837.46;108175;1253;72895;-66
2023/04/13 02:48:05;;;;;;;27.00;14.70;;;;;;;22.01;42.22;98839.33;108171;1254;63239;-66
2023/04/13 02:50:34;;;;;;;23.50;13.20;;;;;;;22.02;42.36;98838.16;108215;1256;60612;-65
2023/04/13 02:53:07;;;;;;;19.10;11.20;;;;;;;22.00;42.09;98833.77;108275;1253;74192;-66
2023/04/13 02:55:42;;;;;;;20.30;10.50;;;;;;;21.93;42.27;98832.71;108171;1253;71729;-66
2023/04/13 02:58:12;;;;;;;21.90;10.60;;;;;;;21.84;42.42;98829.30;108226;1252;73576;-65
2023/04/13 03:00:41;;;;;;;18.30;9.60;;;;;;;21.84;42.48;98830.47;108094;1253;60476;-66
2023/04/13 03:03:19;;;;;;;19.80;11.40;;;;;;;21.94;42.18;98832.01;108139;1253;60390;-67
2023/04/13 03:05:50;;;;;;;16.20;8.70;;;;;;;22.06;42.10;98832.21;108220;1256;74941;-65
2023/04/13 03:08:22;;;;;;;18.20;10.70;;;;;;;22.11;41.96;98839.17;108130;1254;71188;-66
2023/04/13 03:10:59;;;;;;;25.00;12.50;;;;;;;22.19;41.85;98837.66;108127;1254;71890;-67
2023/04/13 03:13:29;;;;;;;18.90;11.60;;;;;;;22.18;41.89;98845.52;108131;1253;63212;-66
2023/04/13 03:15:59;;;;;;;21.30;12.30;;;;;;;22.16;41.83;98841.94;108132;1253;61323;-66
2023/04/13 03:18:28;;;;;;;20.10;13.00;;;;;;;22.22;42.04;98839.86;108096;1253;75981;-66
2023/04/13 03:20:56;;;;;;;21.80;12.30;;;;;;;22.50;41.39;98843.16;107979;1254;71599;-67
2023/04/13 03:23:27;;;;;;;;;;;;;;;22.78;41.10;98845.81;108141;1253;73784;-65
2023/04/13 03:25:57;;;;;;;20.30;11.50;;;;;;;22.73;41.09;98850.07;108190;1253;62435;-66
2023/04/13 03:28:26;;;;;;;22.50;11.50;;;;;;;22.39;41.55;98850.41;107998;1253;61101;-65
2023/04/13 03:30:54;;;;;;;21.10;10.50;;;;;;;22.45;41.65;98851.77;108124;1255;73808;-66
2023/04/13 03:33:23;;;;;;;17.20;9.20;;;;;;;22.35;41.75;98854.33;108091;1253;70599;-67
2023/04/13 03:35:51;;;;;;;14.80;9.10;;;;;;;22.30;41.68;98858.49;108180;1255;73808;-66
2023/04/13 03:38:26;;;;;;;17.30;9.90;;;;;;;22.19;41.88;98861.92;108056;1256;63198;-66
2023/04/13 03:40:55;;;;;;;20.20;10.30;;;;;;;22.22;41.89;98861.48;108076;1254;60397;-67
2023/04/13 03:43:23;;;;;;;18.40;9.60;;;;;;;21.84;42.44;98865.27;108124;1255;74277;-66
2023/04/13 03:46:00;;;;;;;19.50;9.40;;;;;;;21.80;42.70;98856.73;108171;1254;71125;-66
2023/04/13 03:48:28;;;;;;;18.50;9.10;;;;;;;21.99;42.25;98854.23;108057;1254;72416;-66
2023/04/13 03:50:57;;;;;;;23.70;9.60;;;;;;;22.09;42.23;98856.91;108012;1253;62887;-66
2023/04/13 03:53:30;;;;;;;19.10;9.10;;;;;;;22.16;42.08;98858.18;108024;1253;60513;-66
2023/04/13 03:55:58;;;;;;;17.50;9.40;;;;;;;22.17;42.08;98860.81;108031;1258;74046;-66
2023/04/13 03:58:27;;;;;;;15.10;9.20;;;;;;;21.89;42.55;98861.38;108055;1253;70644;-66
2023/04/13 04:00:56;;;;;;;15.50;9.80;;;;;;;21.85;42.70;98870.31;107993;1255;73939;-65
2023/04/13 04:03:34;;;;;;;22.00;8.70;;;;;;;21.74;42.92;98878.66;108077;1253;62222;-66
2023/04/13 04:06:07;;;;;;;15.50;9.10;;;;;;;21.82;42.75;98877.11;107983;1255;60418;-66
2023/04/13 04:08:38;;;;;;;13.30;7.80;;;;;;;21.92;42.54;98878.83;108029;1254;73830;-66
2023/04/13 04:11:12;;;;;;;15.20;9.20;;;;;;;21.98;42.59;98879.40;108010;1254;69400;-66
2023/04/13 04:13:40;;;;;;;18.90;9.20;;;;;;;21.98;42.55;98882.19;108000;1254;72595;-73
2023/04/13 04:16:18;;;;;;;17.00;10.10;;;;;;;22.11;42.32;98881.73;107984;1254;61110;-66
2023/04/13 04:18:52;;;;;;;20.60;10.70;;;;;;;22.22;42.26;98883.96;107998;1254;60347;-66
2023/04/13 04:21:20;;;;;;;22.00;11.70;;;;;;;22.31;42.07;98884.18;108015;1254;74228;-66
2023/04/13 04:23:51;;;;;;;22.90;12.30;;;;;;;22.36;42.09;98882.95;108002;1254;70564;-66
2023/04/13 04:26:24;;;;;;;26.40;14.20;;;;;;;22.57;41.84;98887.98;107933;1254;72928;-66
2023/04/13 04:29:01;;;;;;;30.40;15.30;;;;;;;22.80;41.57;98889.00;107986;1254;62084;-67
2023/04/13 04:31:33;;;;;;;45.90;21.30;;;;;;;22.76;41.68;98888.48;107962;1258;60484;-66
2023/04/13 04:34:05;;;;;;;47.60;22.40;;;;;;;22.73;41.83;98891.44;107871;1254;74987;-67
2023/04/13 04:36:35;;;;;;;37.60;19.20;;;;;;;22.83;41.44;98893.95;108004;1258;70965;-66
2023/04/13 04:39:05;;;;;;;50.40;20.80;;;;;;;22.68;41.84;98895.45;108045;1254;72539;-66
2023/04/13 04:41:38;;;;;;;36.10;15.00;;;;;;;22.62;41.79;98900.37;107981;1254;62217;-67
2023/04/13 04:44:07;;;;;;;33.70;13.10;;;;;;;22.61;41.86;98900.48;108060;1254;60338;-66
2023/04/13 04:46:40;;;;;;;21.70;11.70;;;;;;;22.66;41.87;98897.46;108036;1253;72797;-65
2023/04/13 04:49:12;;;;;;;19.00;10.70;;;;;;;22.64;41.98;98898.88;107989;1254;69934;-65
2023/04/13 04:51:40;;;;;;;23.20;12.20;;;;;;;22.63;42.05;98893.29;107978;1254;71644;-66
2023/04/13 04:54:09;;;;;;;18.60;10.10;;;;;;;22.81;41.95;98887.77;107971;1254;62318;-65
2023/04/13 04:56:37;;;;;;;18.20;9.20;;;;;;;22.84;41.87;98884.52;108088;1253;61549;-66
2023/04/13 04:59:05;;;;;;;15.10;8.70;;;;;;;22.73;42.08;98876.81;108079;1253;73494;-66
2023/04/13 05:01:51;;;;;;;15.00;8.40;;;;;;;22.93;41.76;98871.11;108054;1253;69903;-68
2023/04/13 05:04:19;;;;;;;18.70;8.80;;;;;;;23.05;41.73;98860.96;108057;1253;73862;-67
2023/04/13 05:06:48;;;;;;;19.00;9.40;;;;;;;23.35;41.23;98862.77;108151;1254;61252;-66
2023/04/13 05:09:21;;;;;;;19.50;8.60;;;;;;;23.35;41.31;98875.33;108033;1253;60460;-66
2023/04/13 05:11:55;;;;;;;19.90;9.30;;;;;;;23.52;40.85;98888.06;108176;1253;75096;-66
2023/04/13 05:14:23;;;;;;;23.50;10.20;;;;;;;23.77;40.24;98899.86;108180;1253;70274;-67
2023/04/13 05:16:53;;;;;;;21.30;9.10;;;;;;;24.07;39.72;98893.77;108158;1252;72947;-66
2023/04/13 05:19:28;;;;;;;21.20;8.70;;;;;;;24.15;39.28;98891.09;108171;1255;62978;-65
2023/04/13 05:22:11;;;;;;;22.80;9.50;;;;;;;23.71;39.99;98896.55;108178;1252;60691;-66
2023/04/13 05:24:45;;;;;;;16.30;8.70;;;;;;;24.12;39.52;98892.21;108205;1253;73282;-65
2023/04/13 05:27:14;;;;;;;13.50;8.80;;;;;;;24.24;39.37;98894.21;108219;1253;70347;-66
2023/04/13 05:29:45;;;;;;;17.00;9.00;;;;;;;24.27;39.30;98893.83;108195;1253;72074;-66
2023/04/13 05:32:19;;;;;;;15.80;8.50;;;;;;;24.26;39.16;98891.68;108139;1253;62207;-66
2023/04/13 05:34:49;;;;;;;16.60;8.20;;;;;;;24.39;38.97;98888.73;108249;1252;60340;-68
2023/04/13 05:37:22;;;;;;;13.20;7.70;;;;;;;24.61;38.66;98890.27;108215;1253;74842;-65
2023/04/13 05:39:50;;;;;;;16.50;8.10;;;;;;;24.63;38.43;98887.47;108113;1253;70236;-66
2023/04/13 05:42:22;;;;;;;16.90;7.40;;;;;;;24.62;38.39;98895.52;108200;1253;72713;-66
2023/04/13 05:44:51;;;;;;;12.70;6.80;;;;;;;24.60;38.06;98897.70;108066;1254;62163;-66
2023/04/13 05:47:21;;;;;;;11.80;7.70;;;;;;;24.47;38.07;98902.84;108169;1255;60578;-67
2023/04/13 05:49:51;;;;;;;11.20;7.60;;;;;;;24.50;38.07;98905.48;107972;1253;71811;-67
2023/04/13 05:52:20;;;;;;;;;;;;;;;24.72;37.62;98903.83;108151;1253;69302;-67
2023/04/13 05:54:49;;;;;;;13.70;7.30;;;;;;;24.66;37.33;98901.14;108165;1253;72215;-66
2023/04/13 05:57:21;;;;;;;14.90;7.70;;;;;;;24.66;37.47;98901.77;108159;1253;62979;-66
2023/04/13 05:59:52;;;;;;;15.80;7.20;;;;;;;24.65;37.42;98897.10;108049;1258;61503;-67
2023/04/13 06:02:25;;;;;;;13.30;7.90;;;;;;;24.59;37.70;98901.88;108048;1255;74711;-66
2023/04/13 06:04:55;;;;;;;15.80;7.40;;;;;;;24.67;37.88;98899.96;108077;1253;69852;-67
2023/04/13 06:07:24;;;;;;;14.90;7.50;;;;;;;24.82;37.48;98897.94;108170;1253;73369;-66
2023/04/13 06:09:53;;;;;;;16.90;7.40;;;;;;;24.68;37.62;98898.77;108245;1255;62999;-67
2023/04/13 06:12:26;;;;;;;12.70;7.10;;;;;;;24.62;37.59;98895.11;108201;1254;61869;-67
2023/04/13 06:14:54;;;;;;;16.20;7.60;;;;;;;24.59;37.70;98900.86;108186;1253;74624;-67
2023/04/13 06:17:23;;;;;;;17.60;7.50;;;;;;;24.67;37.61;98901.54;108084;1252;71617;-67
2023/04/13 06:19:53;;;;;;;14.50;7.70;;;;;;;24.70;37.29;98903.87;108226;1252;73625;-67
2023/04/13 06:22:21;;;;;;;13.20;6.80;;;;;;;24.65;37.24;98903.73;108199;1252;62146;-66
2023/04/13 06:24:50;;;;;;;15.10;7.30;;;;;;;24.68;37.26;98903.59;108047;1253;60314;-67
2023/04/13 06:27:21;;;;;;;15.20;7.40;;;;;;;24.72;37.17;98906.52;108185;1253;73912;-66
2023/04/13 06:29:51;;;;;;;16.30;6.90;;;;;;;24.77;37.01;98908.98;108199;1253;71264;-67
2023/04/13 06:32:19;;;;;;;17.80;7.60;;;;;;;24.76;36.82;98913.73;107999;1253;73856;-67
2023/04/13 06:34:48;;;;;;;12.60;6.70;;;;;;;24.77;36.87;98917.10;108175;1253;61709;-67
2023/04/13 06:37:18;;;;;;;17.20;7.30;;;;;;;24.94;36.56;98918.83;108231;1253;60483;-66
2023/04/13 06:39:48;;;;;;;11.00;6.30;;;;;;;25.05;36.07;98924.75;108115;1253;74807;-66
2023/04/13 06:42:20;;;;;;;12.70;6.10;;;;;;;25.10;36.07;98930.79;108126;1253;70096;-66
2023/04/13 06:45:22;;;;;;;15.20;6.90;;;;;;;25.09;36.07;98930.63;108238;1253;73785;-66
2023/04/13 06:47:51;;;;;;;11.80;6.80;;;;;;;25.22;35.83;98933.33;108268;1253;62065;-67
2023/04/13 06:50:19;;;;;;;18.10;6.50;;;;;;;25.35;35.44;98934.18;108159;1252;60464;-66
2023/04/13 06:52:48;;;;;;;14.40;6.70;;;;;;;25.31;34.88;98931.92;108082;1253;73383;-66
2023/04/13 06:55:16;;;;;;;15.10;6.50;;;;;;;25.49;34.96;98930.02;108277;1253;70136;-66
2023/04/13 06:57:45;;;;;;;11.80;6.70;;;;;;;25.71;34.61;98923.66;108126;1254;73749;-65
2023/04/13 07:00:14;;;;;;;16.40;6.40;;;;;;;25.90;34.19;98921.90;108254;1254;60481;-66
2023/04/13 07:02:57;;;;;;;14.60;6.50;;;;;;;25.89;34.06;98923.36;108154;1252;61963;-67
2023/04/13 07:05:25;;;;;;;14.60;7.00;;;;;;;26.04;34.18;98921.17;108246;1254;73232;-66
2023/04/13 07:07:57;;;;;;;15.20;6.10;;;;;;;26.18;33.98;98919.30;108152;1252;70048;-66
2023/04/13 07:10:26;;;;;;;9.80;6.00;;;;;;;26.16;34.04;98925.66;108241;1253;74149;-67
2023/04/13 07:12:55;;;;;;;9.80;5.50;;;;;;;26.30;33.85;98926.11;108235;1253;61321;-66
2023/04/13 07:15:24;;;;;;;10.60;6.10;;;;;;;26.53;33.39;98930.80;108188;1256;61186;-66
2023/04/13 07:17:54;;;;;;;15.30;6.40;;;;;;;26.62;32.21;98937.48;108206;1254;74487;-67
2023/04/13 07:20:23;;;;;;;12.40;6.00;;;;;;;26.36;32.84;98940.09;108248;1253;70990;-67
2023/04/13 07:22:51;;;;;;;12.20;5.70;;;;;;;26.35;33.24;98940.08;108157;1256;73425;-68
2023/04/13 07:25:20;;;;;;;10.00;5.60;;;;;;;26.49;33.17;98937.83;108021;1254;62019;-67
2023/04/13 07:27:49;;;;;;;12.20;5.90;;;;;;;26.67;33.18;98940.48;108021;1253;60707;-67
2023/04/13 07:30:18;;;;;;;11.30;5.20;;;;;;;26.87;32.78;98942.34;108219;1253;74986;-65
2023/04/13 07:32:47;;;;;;;14.80;5.80;;;;;;;27.09;32.18;98945.39;108332;1254;69176;-67
2023/04/13 07:35:15;;;;;;;14.50;6.10;;;;;;;27.08;31.52;98943.54;108121;1254;70381;-66
2023/04/13 07:37:45;;;;;;;10.30;5.50;;;;;;;27.03;31.85;98941.28;108102;1253;61891;-68
2023/04/13 07:40:14;;;;;;;12.30;6.50;;;;;;;27.27;31.86;98939.88;108248;1252;61250;-67
2023/04/13 07:42:46;;;;;;;11.90;5.60;;;;;;;27.57;31.83;98938.41;108207;1253;74572;-66
2023/04/13 07:45:14;;;;;;;12.10;5.80;;;;;;;27.64;31.72;98937.77;108107;1254;71283;-66
2023/04/13 07:47:46;;;;;;;12.30;6.00;;;;;;;27.85;31.47;98934.36;108204;1253;73444;-67
2023/04/13 07:50:15;;;;;;;12.60;6.00;;;;;;;28.01;30.72;98936.98;108064;1252;62134;-67
2023/04/13 07:52:43;;;;;;;11.40;5.70;;;;;;;28.02;30.24;98939.86;108231;1253;61218;-67
2023/04/13 07:55:12;;;;;;;12.10;6.30;;;;;;;28.04;30.26;98940.38;108076;1253;73552;-66
2023/04/13 07:57:48;;;;;;;12.30;6.00;;;;;;;28.25;30.54;98949.77;108157;1253;70602;-66
2023/04/13 08:00:19;;;;;;;11.90;6.40;;;;;;;28.13;30.17;98954.38;108036;1253;73956;-68
2023/04/13 08:02:47;;;;;;;11.50;6.10;;;;;;;28.00;29.93;98957.86;108108;1252;60309;-68
2023/04/13 08:05:22;;;;;;;14.50;5.50;;;;;;;27.69;30.00;98963.73;108229;1252;60910;-67
2023/04/13 08:07:52;;;;;;;11.40;5.70;;;;;;;27.41;30.29;98962.48;108151;1253;73362;-67
2023/04/13 08:10:21;;;;;;;12.30;5.20;;;;;;;27.18;30.45;98963.73;108263;1255;72102;-66
2023/04/13 08:12:49;;;;;;;8.60;5.60;;;;;;;27.24;30.60;98961.48;108289;1253;73826;-66
2023/04/13 08:15:18;;;;;;;12.40;6.20;;;;;;;27.24;30.72;98960.41;108410;1252;62880;-67
2023/04/13 08:17:47;;;;;;;14.60;6.80;;;;;;;27.17;31.34;98963.06;108310;1253;61290;-66
2023/04/13 08:20:15;;;;;;;14.00;5.60;;;;;;;27.14;31.21;98968.88;108171;1253;73620;-67
2023/04/13 08:22:46;;;;;;;13.40;6.00;;;;;;;27.44;30.92;98970.79;108343;1253;71801;-67
2023/04/13 08:25:16;;;;;;;17.00;6.00;;;;;;;27.40;30.55;98973.78;108231;1252;73243;-67
2023/04/13 08:27:44;;;;;;;12.70;6.00;;;;;;;27.29;30.81;98972.74;108035;1253;60668;-67
2023/04/13 08:30:13;;;;;;;18.40;7.10;;;;;;;27.30;30.83;98969.75;108266;1251;60330;-67
2023/04/13 08:33:00;;;;;;;15.00;7.70;;;;;;;27.09;31.03;98970.17;108254;1252;71860;-67
2023/04/13 08:35:29;;;;;;;14.50;7.50;;;;;;;26.97;31.24;98974.18;108096;1253;69562;-68
2023/04/13 08:38:01;;;;;;;14.30;7.40;;;;;;;26.97;31.26;98976.77;108219;1253;73395;-67
2023/04/13 08:40:36;;;;;;;16.90;7.10;;;;;;;27.17;31.09;98977.33;108095;1257;63442;-67
2023/04/13 08:43:06;;;;;;;15.70;7.00;;;;;;;27.47;31.19;98981.67;108023;1252;60189;-67
2023/04/13 08:45:40;;;;;;;16.70;7.30;;;;;;;27.49;31.25;98983.95;108083;1257;74484;-67
2023/04/13 08:48:11;;;;;;;11.30;7.00;;;;;;;27.58;31.30;98981.73;108240;1257;71220;-67
2023/04/13 08:50:39;;;;;;;12.60;6.50;;;;;;;27.60;31.32;98981.75;108056;1258;73866;-67
2023/04/13 08:53:09;;;;;;;12.80;6.20;;;;;;;27.39;31.12;98979.48;108012;1253;62961;-67
2023/04/13 08:55:42;;;;;;;14.00;6.00;;;;;;;27.34;31.16;98983.30;108184;1253;61536;-67
2023/04/13 08:58:11;;;;;;;11.30;6.30;;;;;;;27.37;31.20;98981.96;108147;1253;74057;-66
2023/04/13 09:00:43;;;;;;;17.40;7.10;;;;;;;27.38;31.28;98979.73;108154;1257;71148;-67
2023/04/13 09:03:12;;;;;;;17.00;7.10;;;;;;;27.54;31.14;98981.06;108196;1252;73286;-67
2023/04/13 09:05:45;;;;;;;14.90;7.80;;;;;;;27.40;31.00;98980.27;108144;1253;63331;-67
2023/04/13 09:08:15;;;;;;;20.20;10.10;;;;;;;27.28;31.39;98982.27;108211;1253;61621;-67
2023/04/13 09:10:47;;;;;;;18.00;8.00;;;;;;;27.30;31.18;98985.59;108158;1255;71730;-67
2023/04/13 09:13:15;;;;;;;17.80;8.50;;;;;;;27.34;31.40;98987.66;108038;1253;71961;-66
2023/04/13 09:15:46;;;;;;;14.20;7.80;;;;;;;27.58;31.20;98985.97;108158;1253;72138;-66
2023/04/13 09:18:50;;;;;;;12.10;6.10;;;;;;;27.68;30.93;98986.57;108235;1252;62931;-66
2023/04/13 09:24:01;;;;;;;13.40;6.10;;;;;;;24.52;35.44;98995.88;104851;1289;600735;-68
2023/04/13 09:26:47;;;;;;;15.10;5.70;;;;;;;26.38;32.82;98989.21;107897;1255;62776;-67
2023/04/13 09:29:20;;;;;;;16.00;6.20;;;;;;;26.88;31.87;98983.10;108057;1252;60871;-67
2023/04/13 09:31:49;;;;;;;11.00;5.30;;;;;;;27.12;31.61;98981.71;108008;1253;72751;-67
2023/04/13 09:34:27;;;;;;;11.70;5.00;;;;;;;27.31;31.32;98981.26;108010;1253;69619;-67
2023/04/13 09:36:57;;;;;;;9.20;4.70;;;;;;;27.39;31.01;98989.58;107961;1251;167280;-67
2023/04/13 09:39:29;;;;;;;10.90;5.40;;;;;;;27.39;31.09;98988.84;108225;1251;60621;-67
2023/04/13 09:41:57;;;;;;;9.20;5.10;;;;;;;27.43;30.84;98986.13;108278;1251;61389;-66
2023/04/13 09:44:34;;;;;;;9.50;4.70;;;;;;;27.45;30.91;98995.05;108212;1251;73435;-67
2023/04/13 09:47:05;;;;;;;8.20;4.20;;;;;;;27.59;30.73;98994.30;108284;1251;69664;-67
2023/04/13 09:49:41;;;;;;;7.70;4.60;;;;;;;27.95;30.18;98996.05;108110;1256;72127;-67
2023/04/13 09:52:21;;;;;;;13.70;5.20;;;;;;;28.16;29.86;98996.08;108253;1251;62157;-67
2023/04/13 09:54:56;;;;;;;10.60;5.40;;;;;;;28.32;29.98;98994.92;108243;1253;59625;-67
2023/04/13 09:57:29;;;;;;;9.00;5.60;;;;;;;28.32;29.81;98996.23;108321;1252;73764;-67
2023/04/13 10:00:05;;;;;;;13.20;5.60;;;;;;;27.94;30.20;99003.44;108271;1253;70349;-66
2023/04/13 10:02:41;;;;;;;8.10;5.10;;;;;;;27.61;30.18;99003.44;108223;1253;73979;-68
2023/04/13 10:05:11;;;;;;;17.30;5.00;;;;;;;27.23;30.58;99004.40;108214;1253;60728;-68
2023/04/13 10:07:44;;;;;;;11.80;5.40;;;;;;;26.75;31.34;99009.73;108231;1253;61254;-67
2023/04/13 10:10:14;;;;;;;12.10;5.60;;;;;;;26.55;31.66;99010.85;108227;1252;73904;-67
2023/04/13 10:12:47;;;;;;;12.80;5.80;;;;;;;26.45;31.96;99012.27;108189;1253;71202;-67
2023/04/13 10:15:21;;;;;;;10.90;5.40;;;;;;;26.40;32.14;99015.59;108242;1252;72825;-66
2023/04/13 10:18:05;;;;;;;10.00;5.10;;;;;;;26.20;32.52;99021.78;108213;1252;63701;-68
2023/04/13 10:20:35;;;;;;;10.70;5.40;;;;;;;26.12;32.44;99022.03;108263;1253;60646;-67
2023/04/13 10:23:03;;;;;;;17.90;6.10;;;;;;;26.18;32.32;99022.41;108121;1253;71464;-66
2023/04/13 10:25:31;;;;;;;21.40;5.50;;;;;;;26.09;32.33;99027.21;108210;1253;71326;-67
2023/04/13 10:28:03;;;;;;;8.80;4.90;;;;;;;25.92;32.43;99022.95;108122;1253;73609;-67
2023/04/13 10:30:32;;;;;;;7.60;5.30;;;;;;;25.92;32.49;99023.38;108253;1253;62788;-66
2023/04/13 10:33:08;;;;;;;9.70;5.90;;;;;;;26.30;32.17;99024.64;108216;1253;59704;-67
2023/04/13 10:35:36;;;;;;;11.00;6.00;;;;;;;26.09;32.50;99026.48;108138;1252;72362;-67
2023/04/13 10:38:07;;;;;;;13.80;5.80;;;;;;;26.01;32.82;99031.95;108248;1252;70992;-67
2023/04/13 10:40:46;;;;;;;12.70;5.70;;;;;;;25.92;32.99;99030.19;108193;1253;72145;-65
2023/04/13 10:43:27;;;;;;;8.70;5.50;;;;;;;25.93;33.12;99030.20;108239;1252;62963;-67
2023/04/13 10:46:09;;;;;;;11.90;6.00;;;;;;;25.99;33.03;99034.86;108295;1252;60307;-68
2023/04/13 10:48:41;;;;;;;11.50;6.10;;;;;;;25.86;33.23;99030.79;108263;1253;72865;-67
2023/04/13 10:51:11;;;;;;;18.60;6.20;;;;;;;25.68;33.45;99031.70;108125;1253;69654;-68
2023/04/13 10:53:41;;;;;;;16.90;6.50;;;;;;;25.61;33.63;99034.51;108310;1252;72133;-66
2023/04/13 10:56:15;;;;;;;11.80;6.20;;;;;;;25.92;33.16;99041.59;108102;1252;60716;-68
2023/04/13 10:58:50;;;;;;;10.60;5.80;;;;;;;25.82;33.06;99047.09;108143;1253;59879;-67
2023/04/13 11:01:19;;;;;;;11.20;5.40;;;;;;;25.78;33.23;99051.61;108103;1253;72210;-67
2023/04/13 11:03:49;;;;;;;9.60;5.90;;;;;;;25.66;33.34;99054.69;108139;1252;72023;-66
2023/04/13 11:06:38;;;;;;;18.00;6.40;;;;;;;25.46;33.50;99062.15;108094;1253;71983;-67
2023/04/13 11:09:10;;;;;;;10.30;6.50;;;;;;;25.63;33.61;99056.87;108078;1253;62944;-67
2023/04/13 11:11:41;;;;;;;13.90;6.30;;;;;;;25.77;33.51;99066.17;107997;1253;61328;-66
2023/04/13 11:14:20;;;;;;;13.10;6.00;;;;;;;25.72;33.55;99066.11;108111;1253;73481;-67
2023/04/13 11:16:48;;;;;;;11.00;6.30;;;;;;;25.79;33.57;99064.92;108053;1253;71711;-67
2023/04/13 11:19:17;;;;;;;11.30;6.10;;;;;;;26.09;33.30;99068.59;108026;1253;73896;-65
2023/04/13 11:21:52;;;;;;;11.20;6.70;;;;;;;26.30;32.78;99071.01;108009;1258;61891;-67
2023/04/13 11:24:28;;;;;;;13.80;5.80;;;;;;;26.38;32.65;99068.48;108091;1253;59653;-67
2023/04/13 11:26:56;;;;;;;12.90;6.70;;;;;;;26.25;32.77;99062.91;108054;1257;73897;-64
2023/04/13 11:29:26;;;;;;;10.70;6.10;;;;;;;26.31;32.83;99065.83;108090;1253;71076;-66
2023/04/13 11:31:56;;;;;;;9.70;5.60;;;;;;;26.35;32.79;99060.92;108126;1253;73859;-66
2023/04/13 11:34:29;;;;;;;11.40;6.40;;;;;;;26.37;32.83;99061.58;108145;1253;62007;-66
2023/04/13 11:36:59;;;;;;;13.80;6.40;;;;;;;26.44;32.90;99058.22;108085;1253;59757;-67
2023/04/13 11:39:28;;;;;;;15.80;6.60;;;;;;;26.37;32.99;99064.55;108152;1253;73795;-67